createdAt,value
2022-11-21T00:00:14.140Z,98568.16
2022-11-21T00:01:46.247Z,98570.75
2022-11-21T00:03:18.165Z,98570.75
2022-11-21T00:04:50.225Z,98568.22
2022-11-21T00:06:23.949Z,98548.50
2022-11-21T00:07:55.946Z,98543.47
2022-11-21T00:09:27.872Z,98553.06
2022-11-21T00:11:00.068Z,98553.13
2022-11-21T00:12:31.919Z,98538.38
2022-11-21T00:14:03.941Z,98508.09
2022-11-21T00:15:36.071Z,98460.06
2022-11-21T00:17:07.979Z,98422.28
2022-11-21T00:18:39.801Z,98425.75
2022-11-21T00:20:12.482Z,98449.69
2022-11-21T00:21:44.313Z,98454.66
2022-11-21T00:23:16.108Z,98467.44
2022-11-21T00:24:52.991Z,98466.41
2022-11-21T00:26:25.902Z,98466.88
2022-11-21T00:27:57.762Z,98478.50
2022-11-21T00:29:29.726Z,98483.50
2022-11-21T00:31:01.748Z,98487.63
2022-11-21T00:32:33.769Z,98491.00
2022-11-21T00:34:05.608Z,98501.22
2022-11-21T00:35:37.452Z,98537.50
2022-11-21T00:37:09.388Z,98526.28
2022-11-21T00:38:41.212Z,98523.47
2022-11-21T00:40:13.054Z,98536.28
2022-11-21T00:41:45.447Z,98544.78
2022-11-21T00:43:17.329Z,98534.41
2022-11-21T00:44:51.254Z,98538.75
2022-11-21T00:46:23.536Z,98526.63
2022-11-21T00:47:55.339Z,98528.50
2022-11-21T00:49:27.228Z,98543.25
2022-11-21T00:51:00.964Z,98522.53
2022-11-21T00:52:32.938Z,98504.81
2022-11-21T00:54:04.726Z,98512.66
2022-11-21T00:55:37.778Z,98511.66
2022-11-21T00:57:10.852Z,98509.94
2022-11-21T00:58:42.861Z,98517.63
2022-11-21T01:00:15.304Z,98510.72
2022-11-21T01:01:47.231Z,98517.56
2022-11-21T01:03:19.296Z,98521.88
2022-11-21T01:04:51.080Z,98530.41
2022-11-21T01:06:23.120Z,98521.88
2022-11-21T01:07:55.040Z,98520.22
2022-11-21T01:09:27.073Z,98521.09
2022-11-21T01:11:02.532Z,98509.00
2022-11-21T01:12:34.514Z,98504.66
2022-11-21T01:14:06.433Z,98490.91
2022-11-21T01:15:38.273Z,98491.13
2022-11-21T01:17:10.160Z,98487.69
2022-11-21T01:18:42.138Z,98471.28
2022-11-21T01:20:14.252Z,98453.03
2022-11-21T01:21:46.112Z,98452.91
2022-11-21T01:23:17.931Z,98451.97
2022-11-21T01:24:49.790Z,98447.53
2022-11-21T01:26:23.001Z,98446.47
2022-11-21T01:27:54.907Z,98413.44
2022-11-21T01:29:27.777Z,98406.41
2022-11-21T01:31:09.369Z,98416.63
2022-11-21T01:32:41.235Z,98417.38
2022-11-21T01:34:15.239Z,98417.25
2022-11-21T01:35:47.082Z,98417.06
2022-11-21T01:37:18.894Z,98414.25
2022-11-21T01:38:51.681Z,98412.41
2022-11-21T01:40:23.496Z,98406.25
2022-11-21T01:41:55.439Z,98399.22
2022-11-21T01:43:27.483Z,98393.09
2022-11-21T01:46:39.930Z,98402.47
2022-11-21T01:48:11.966Z,98402.41
2022-11-21T01:49:43.983Z,98414.50
2022-11-21T01:51:32.309Z,98414.41
2022-11-21T01:53:04.165Z,98433.41
2022-11-21T01:54:42.153Z,98431.59
2022-11-21T01:56:13.910Z,98430.69
2022-11-21T01:57:45.822Z,98428.91
2022-11-21T01:59:20.277Z,98428.84
2022-11-21T02:00:52.350Z,98437.41
2022-11-21T02:02:25.035Z,98427.91
2022-11-21T02:03:57.347Z,98430.44
2022-11-21T02:05:30.206Z,98431.28
2022-11-21T02:07:02.429Z,98415.63
2022-11-21T02:08:34.301Z,98408.66
2022-11-21T02:10:06.489Z,98395.59
2022-11-21T02:11:51.134Z,98383.38
2022-11-21T02:13:23.107Z,98382.47
2022-11-21T02:14:54.969Z,98372.91
2022-11-21T02:16:26.915Z,98366.88
2022-11-21T02:17:58.848Z,98367.78
2022-11-21T02:19:34.588Z,98357.88
2022-11-21T02:21:12.329Z,98356.19
2022-11-21T02:22:59.169Z,98366.66
2022-11-21T02:24:34.409Z,98372.25
2022-11-21T02:26:06.240Z,98365.66
2022-11-21T02:27:38.327Z,98362.84
2022-11-21T02:29:10.319Z,98371.59
2022-11-21T02:30:42.696Z,98354.22
2022-11-21T02:45:27.464Z,98356.50
2022-11-21T02:46:59.347Z,98356.44
2022-11-21T02:48:31.397Z,98340.03
2022-11-21T02:50:05.525Z,98343.59
2022-11-21T02:51:37.339Z,98355.81
2022-11-21T02:53:10.505Z,98350.78
2022-11-21T02:54:42.328Z,98355.19
2022-11-21T02:56:14.159Z,98359.63
2022-11-21T02:57:46.243Z,98353.72
2022-11-21T02:59:18.115Z,98364.31
2022-11-21T03:00:52.556Z,98357.59
2022-11-21T03:02:24.544Z,98360.47
2022-11-21T03:03:56.488Z,98360.63
2022-11-21T03:05:28.349Z,98362.38
2022-11-21T03:07:00.361Z,98347.53
2022-11-21T03:08:32.246Z,98353.53
2022-11-21T03:10:04.446Z,98354.25
2022-11-21T03:11:36.239Z,98351.59
2022-11-21T03:13:08.208Z,98353.25
2022-11-21T03:14:40.068Z,98360.06
2022-11-21T03:16:11.875Z,98371.34
2022-11-21T03:17:44.020Z,98374.72
2022-11-21T03:19:16.044Z,98364.41
2022-11-21T03:20:48.076Z,98357.56
2022-11-21T03:22:19.961Z,98374.06
2022-11-21T03:23:51.770Z,98384.53
2022-11-21T03:25:23.773Z,98394.03
2022-11-21T03:26:55.560Z,98383.75
2022-11-21T03:28:27.467Z,98386.47
2022-11-21T03:29:59.425Z,98390.13
2022-11-21T03:31:31.351Z,98396.34
2022-11-21T03:33:03.320Z,98396.44
2022-11-21T03:34:35.328Z,98399.09
2022-11-21T03:36:07.501Z,98379.25
2022-11-21T03:37:39.353Z,98375.00
2022-11-21T03:39:11.360Z,98386.34
2022-11-21T03:40:43.153Z,98386.41
2022-11-21T03:42:15.320Z,98389.72
2022-11-21T03:43:47.156Z,98391.31
2022-11-21T03:45:18.989Z,98402.44
2022-11-21T03:46:50.876Z,98418.84
2022-11-21T03:48:22.817Z,98430.31
2022-11-21T03:49:54.697Z,98432.13
2022-11-21T03:51:26.710Z,98442.44
2022-11-21T03:52:58.566Z,98446.84
2022-11-21T03:54:30.702Z,98452.34
2022-11-21T03:56:02.739Z,98447.81
2022-11-21T03:57:34.693Z,98438.28
2022-11-21T03:59:06.976Z,98433.44
2022-11-21T04:00:38.929Z,98428.72
2022-11-21T04:02:10.843Z,98425.63
2022-11-21T04:03:43.032Z,98425.81
2022-11-21T04:05:15.004Z,98429.66
2022-11-21T04:06:47.035Z,98421.31
2022-11-21T04:08:18.853Z,98418.38
2022-11-21T04:09:50.722Z,98425.09
2022-11-21T04:11:23.907Z,98425.81
2022-11-21T04:12:55.781Z,98424.81
2022-11-21T04:14:27.801Z,98415.97
2022-11-21T04:15:59.872Z,98430.56
2022-11-21T04:17:32.314Z,98431.44
2022-11-21T04:19:04.152Z,98433.06
2022-11-21T04:20:36.185Z,98433.00
2022-11-21T04:22:08.105Z,98427.03
2022-11-21T04:23:40.051Z,98425.28
2022-11-21T04:25:14.998Z,98416.53
2022-11-21T04:26:46.864Z,98420.81
2022-11-21T04:28:18.921Z,98429.34
2022-11-21T04:29:50.979Z,98437.97
2022-11-21T04:31:22.930Z,98436.97
2022-11-21T04:32:55.161Z,98438.66
2022-11-21T04:34:27.506Z,98436.06
2022-11-21T04:35:59.673Z,98420.50
2022-11-21T04:37:31.615Z,98428.22
2022-11-21T04:39:03.598Z,98418.84
2022-11-21T04:40:35.765Z,98436.94
2022-11-21T04:42:07.785Z,98435.09
2022-11-21T04:43:39.765Z,98431.59
2022-11-21T04:45:12.170Z,98427.25
2022-11-21T04:46:44.102Z,98428.94
2022-11-21T04:48:16.012Z,98447.03
2022-11-21T04:49:48.010Z,98449.63
2022-11-21T04:51:19.899Z,98440.84
2022-11-21T04:52:56.085Z,98431.31
2022-11-21T04:54:28.080Z,98434.91
2022-11-21T04:56:00.616Z,98443.50
2022-11-21T04:57:32.739Z,98441.84
2022-11-21T04:59:04.588Z,98458.44
2022-11-21T05:00:36.759Z,98444.56
2022-11-21T05:02:08.920Z,98454.03
2022-11-21T05:03:40.938Z,98460.88
2022-11-21T05:05:12.898Z,98463.41
2022-11-21T05:06:44.830Z,98470.34
2022-11-21T05:08:16.734Z,98478.13
2022-11-21T05:09:48.655Z,98482.41
2022-11-21T05:11:39.022Z,98484.94
2022-11-21T05:13:22.810Z,98487.47
2022-11-21T05:14:54.670Z,98490.06
2022-11-21T05:16:26.501Z,98496.13
2022-11-21T05:18:01.204Z,98502.16
2022-11-21T05:19:33.466Z,98488.28
2022-11-21T05:21:05.320Z,98487.78
2022-11-21T05:22:37.278Z,98493.03
2022-11-21T05:24:09.142Z,98493.09
2022-11-21T05:25:41.061Z,98484.69
2022-11-21T05:27:12.915Z,98487.22
2022-11-21T05:28:44.855Z,98492.25
2022-11-21T05:30:16.853Z,98489.66
2022-11-21T05:31:49.124Z,98493.09
2022-11-21T05:33:21.186Z,98498.56
2022-11-21T05:34:53.122Z,98504.44
2022-11-21T05:36:25.559Z,98511.22
2022-11-21T05:37:57.900Z,98511.06
2022-11-21T05:39:29.887Z,98509.25
2022-11-21T05:41:01.927Z,98514.44
2022-11-21T05:42:52.360Z,98515.25
2022-11-21T05:44:24.246Z,98517.78
2022-11-21T05:45:56.207Z,98523.75
2022-11-21T05:47:28.225Z,98526.47
2022-11-21T05:49:00.133Z,98530.56
2022-11-21T05:50:31.977Z,98519.19
2022-11-21T05:53:36.784Z,98538.28
2022-11-21T05:55:09.046Z,98541.69
2022-11-21T05:56:43.969Z,98547.66
2022-11-21T05:58:15.882Z,98557.97
2022-11-21T05:59:48.009Z,98565.75
2022-11-21T06:01:39.970Z,98568.25
2022-11-21T06:03:31.159Z,98571.84
2022-11-21T06:05:03.198Z,98578.84
2022-11-21T06:06:35.196Z,98582.47
2022-11-21T06:08:09.339Z,98579.88
2022-11-21T06:09:41.289Z,98582.72
2022-11-21T06:11:14.424Z,98584.34
2022-11-21T06:12:46.283Z,98598.16
2022-11-21T06:14:18.242Z,98594.78
2022-11-21T06:15:51.014Z,98599.19
2022-11-21T06:17:22.941Z,98605.22
2022-11-21T06:18:58.442Z,98600.03
2022-11-21T06:20:30.851Z,98608.13
2022-11-21T06:22:02.736Z,98611.44
2022-11-21T06:23:36.163Z,98615.63
2022-11-21T06:25:08.185Z,98617.41
2022-11-21T06:28:12.685Z,98623.56
2022-11-21T06:29:44.810Z,98623.47
2022-11-21T06:31:20.211Z,98627.81
2022-11-21T06:32:52.460Z,98635.78
2022-11-21T06:34:26.460Z,98650.47
2022-11-21T06:35:58.665Z,98647.09
2022-11-21T06:37:31.179Z,98658.28
2022-11-21T06:39:03.470Z,98660.75
2022-11-21T06:40:35.391Z,98659.84
2022-11-21T06:42:07.601Z,98661.66
2022-11-21T06:43:39.517Z,98664.25
2022-11-21T06:45:11.388Z,98672.22
2022-11-21T06:46:48.240Z,98672.09
2022-11-21T06:48:23.002Z,98667.72
2022-11-21T06:49:54.970Z,98673.06
2022-11-21T06:51:26.915Z,98665.38
2022-11-21T06:52:59.311Z,98679.28
2022-11-21T06:54:31.601Z,98672.53
2022-11-21T06:56:03.882Z,98679.47
2022-11-21T06:57:35.810Z,98694.28
2022-11-21T06:59:07.693Z,98691.69
2022-11-21T07:00:40.196Z,98689.88
2022-11-21T07:02:15.192Z,98689.94
2022-11-21T07:03:47.047Z,98695.06
2022-11-21T07:05:18.861Z,98707.34
2022-11-21T07:06:50.742Z,98710.94
2022-11-21T07:08:22.553Z,98710.16
2022-11-21T07:09:54.393Z,98714.69
2022-11-21T07:11:26.311Z,98720.84
2022-11-21T07:13:17.226Z,98703.00
2022-11-21T07:14:49.265Z,98718.66
2022-11-21T07:16:21.308Z,98712.00
2022-11-21T07:17:53.617Z,98719.81
2022-11-21T07:19:25.865Z,98718.19
2022-11-21T07:20:58.838Z,98724.16
2022-11-21T07:22:30.813Z,98726.06
2022-11-21T07:24:02.713Z,98731.25
2022-11-21T07:25:36.859Z,98736.53
2022-11-21T07:27:09.040Z,98746.78
2022-11-21T07:28:40.972Z,98742.47
2022-11-21T07:30:13.481Z,98742.56
2022-11-21T07:31:45.634Z,98749.38
2022-11-21T07:33:17.568Z,98743.25
2022-11-21T07:34:49.689Z,98751.81
2022-11-21T07:36:21.645Z,98760.63
2022-11-21T07:39:30.666Z,98759.78
2022-11-21T07:41:02.621Z,98752.81
2022-11-21T07:42:34.640Z,98745.00
2022-11-21T07:44:06.718Z,98753.03
2022-11-21T07:45:38.882Z,98767.66
2022-11-21T07:47:11.174Z,98766.72
2022-11-21T07:48:43.264Z,98777.78
2022-11-21T07:50:18.164Z,98787.28
2022-11-21T07:51:50.337Z,98789.03
2022-11-21T07:53:22.448Z,98788.28
2022-11-21T07:54:54.361Z,98789.06
2022-11-21T07:56:28.765Z,98783.09
2022-11-21T07:58:10.828Z,98801.28
2022-11-21T07:59:43.033Z,98802.25
2022-11-21T08:01:15.013Z,98812.56
2022-11-21T08:02:46.952Z,98822.84
2022-11-21T08:04:18.886Z,98827.13
2022-11-21T08:05:50.829Z,98833.97
2022-11-21T08:07:23.262Z,98820.16
2022-11-21T08:08:55.548Z,98828.88
2022-11-21T08:10:27.410Z,98828.00
2022-11-21T08:11:59.404Z,98823.78
2022-11-21T08:13:31.654Z,98822.13
2022-11-21T08:15:05.372Z,98826.56
2022-11-21T08:16:37.345Z,98827.47
2022-11-21T08:18:15.782Z,98827.50
2022-11-21T08:19:48.037Z,98828.56
2022-11-21T08:21:20.296Z,98835.69
2022-11-21T08:22:52.363Z,98844.69
2022-11-21T08:24:24.729Z,98848.25
2022-11-21T08:25:56.818Z,98857.03
2022-11-21T08:27:28.916Z,98856.22
2022-11-21T08:29:00.919Z,98862.31
2022-11-21T08:30:33.161Z,98863.16
2022-11-21T08:32:05.312Z,98863.97
2022-11-21T08:33:37.277Z,98865.63
2022-11-21T08:35:10.033Z,98868.13
2022-11-21T08:36:41.872Z,98867.19
2022-11-21T08:38:13.830Z,98864.53
2022-11-21T08:39:45.866Z,98855.81
2022-11-21T08:41:36.414Z,98839.38
2022-11-21T08:43:09.201Z,98841.09
2022-11-21T08:44:41.139Z,98848.81
2022-11-21T08:46:13.413Z,98864.25
2022-11-21T08:47:45.441Z,98866.94
2022-11-21T08:49:17.480Z,98856.50
2022-11-21T08:50:49.723Z,98854.72
2022-11-21T08:52:21.627Z,98854.66
2022-11-21T08:53:53.927Z,98858.97
2022-11-21T08:55:26.050Z,98854.56
2022-11-21T08:56:58.060Z,98853.66
2022-11-21T08:58:30.322Z,98860.53
2022-11-21T09:00:02.521Z,98852.69
2022-11-21T09:01:34.594Z,98853.56
2022-11-21T09:03:06.687Z,98857.88
2022-11-21T09:04:38.917Z,98864.84
2022-11-21T09:06:11.000Z,98863.22
2022-11-21T09:07:43.509Z,98865.06
2022-11-21T09:09:23.794Z,98853.88
2022-11-21T09:10:57.517Z,98853.88
2022-11-21T09:12:29.535Z,98857.25
2022-11-21T09:14:20.255Z,98864.97
2022-11-21T09:17:43.639Z,98886.38
2022-11-21T09:19:15.562Z,98873.38
2022-11-21T09:20:47.766Z,98881.06
2022-11-21T09:22:20.358Z,98879.25
2022-11-21T09:23:52.466Z,98873.97
2022-11-21T09:25:24.392Z,98874.75
2022-11-21T09:26:56.624Z,98866.81
2022-11-21T09:28:28.766Z,98872.75
2022-11-21T09:30:00.905Z,98872.69
2022-11-21T09:31:33.358Z,98874.31
2022-11-21T09:33:06.599Z,98872.50
2022-11-21T09:34:38.487Z,98878.38
2022-11-21T09:36:10.740Z,98871.28
2022-11-21T09:37:42.679Z,98875.50
2022-11-21T09:39:14.650Z,98874.50
2022-11-21T09:40:46.885Z,98871.81
2022-11-21T09:42:37.222Z,98874.31
2022-11-21T09:44:28.183Z,98868.13
2022-11-21T09:46:02.326Z,98868.00
2022-11-21T09:47:36.262Z,98869.53
2022-11-21T09:49:08.116Z,98867.63
2022-11-21T09:50:40.670Z,98862.28
2022-11-21T09:52:12.719Z,98858.66
2022-11-21T09:54:04.456Z,98861.13
2022-11-21T09:55:36.516Z,98867.84
2022-11-21T09:57:09.266Z,98866.81
2022-11-21T09:58:44.650Z,98850.44
2022-11-21T10:00:20.175Z,98858.31
2022-11-21T10:01:52.096Z,98860.91
2022-11-21T10:03:25.107Z,98851.44
2022-11-21T10:05:01.411Z,98854.69
2022-11-21T10:06:37.097Z,98853.63
2022-11-21T10:08:14.300Z,98846.69
2022-11-21T10:10:05.510Z,98844.22
2022-11-21T10:12:14.971Z,98845.72
2022-11-21T10:13:50.337Z,98838.81
2022-11-21T10:15:25.728Z,98837.00
2022-11-21T10:17:00.685Z,98837.00
2022-11-21T10:18:37.108Z,98843.03
2022-11-21T10:21:50.308Z,98843.63
2022-11-21T10:23:27.806Z,98826.50
2022-11-21T10:25:27.467Z,98830.84
2022-11-21T10:27:16.375Z,98835.19
2022-11-21T10:28:58.042Z,98827.28
2022-11-21T10:30:30.377Z,98824.69
2022-11-21T10:32:03.674Z,98817.44
2022-11-21T10:33:41.067Z,98815.44
2022-11-21T10:35:17.573Z,98814.41
2022-11-21T10:36:50.561Z,98820.97
2022-11-21T10:38:23.711Z,98813.09
2022-11-21T10:39:55.624Z,98812.00
2022-11-21T10:41:41.055Z,98814.47
2022-11-21T10:43:37.856Z,98815.00
2022-11-21T10:45:17.944Z,98818.81
2022-11-21T10:46:56.920Z,98817.09
2022-11-21T10:48:28.869Z,98818.88
2022-11-21T10:50:10.132Z,98829.50
2022-11-21T10:51:43.463Z,98832.88
2022-11-21T10:53:37.696Z,98838.72
2022-11-21T10:55:11.101Z,98842.53
2022-11-21T10:56:42.992Z,98839.38
2022-11-21T10:58:18.932Z,98838.56
2022-11-21T11:00:01.229Z,98843.00
2022-11-21T11:01:34.377Z,98840.56
2022-11-21T11:03:07.718Z,98844.22
2022-11-21T11:04:47.317Z,98838.38
2022-11-21T11:06:28.711Z,98843.75
2022-11-21T11:08:10.989Z,98843.13
2022-11-21T11:09:47.424Z,98846.13
2022-11-21T11:11:21.482Z,98844.47
2022-11-21T11:13:44.060Z,98844.56
2022-11-21T11:15:04.070Z,98829.78
2022-11-21T11:16:41.444Z,98845.63
2022-11-21T11:18:14.125Z,98842.09
2022-11-21T11:20:02.967Z,98840.34
2022-11-21T11:21:50.211Z,98840.22
2022-11-21T11:23:28.264Z,98844.59
2022-11-21T11:25:02.575Z,98840.34
2022-11-21T11:26:34.576Z,98840.00
2022-11-21T11:28:07.506Z,98840.97
2022-11-21T11:29:51.421Z,98851.34
2022-11-21T11:31:23.552Z,98839.22
2022-11-21T11:32:58.251Z,98846.38
2022-11-21T11:34:37.825Z,98849.78
2022-11-21T11:36:18.180Z,98844.03
2022-11-21T11:37:58.448Z,98850.88
2022-11-21T11:39:45.693Z,98849.88
2022-11-21T11:41:25.977Z,98851.53
2022-11-21T11:43:18.037Z,98857.63
2022-11-21T11:45:26.762Z,98859.66
2022-11-21T11:47:25.311Z,98869.94
2022-11-21T11:49:21.221Z,98869.94
2022-11-21T11:50:54.429Z,98876.78
2022-11-21T11:52:27.829Z,98869.09
2022-11-21T11:54:01.891Z,98867.44
2022-11-21T11:55:36.774Z,98871.00
2022-11-21T11:57:09.103Z,98863.50
2022-11-21T11:58:43.384Z,98866.31
2022-11-21T12:00:15.698Z,98855.44
2022-11-21T12:01:48.612Z,98863.34
2022-11-21T12:03:40.824Z,98868.44
2022-11-21T12:05:18.076Z,98866.84
2022-11-21T12:08:49.678Z,98870.53
2022-11-21T12:10:25.352Z,98866.44
2022-11-21T12:12:09.893Z,98868.16
2022-11-21T12:13:42.088Z,98873.97
2022-11-21T12:15:38.977Z,98872.91
2022-11-21T12:17:11.139Z,98879.75
2022-11-21T12:18:48.174Z,98871.94
2022-11-21T12:20:21.731Z,98872.00
2022-11-21T12:21:53.662Z,98874.41
2022-11-21T12:23:25.974Z,98868.56
2022-11-21T12:24:58.092Z,98870.97
2022-11-21T12:26:45.289Z,98876.16
2022-11-21T12:28:21.489Z,98881.16
2022-11-21T12:30:05.201Z,98885.28
2022-11-21T12:31:37.326Z,98887.84
2022-11-21T12:33:15.709Z,98886.94
2022-11-21T12:35:06.092Z,98887.94
2022-11-21T12:36:43.494Z,98892.94
2022-11-21T12:38:18.935Z,98896.31
2022-11-21T12:40:01.121Z,98894.47
2022-11-21T12:41:52.385Z,98894.38
2022-11-21T12:43:37.102Z,98893.31
2022-11-21T12:45:30.707Z,98883.78
2022-11-21T12:47:09.400Z,98881.97
2022-11-21T12:49:02.693Z,98884.53
2022-11-21T12:50:59.503Z,98889.59
2022-11-21T12:52:49.754Z,98898.16
2022-11-21T12:54:39.078Z,98906.66
2022-11-21T12:56:23.740Z,98905.06
2022-11-21T12:58:08.007Z,98906.09
2022-11-21T12:59:46.310Z,98900.81
2022-11-21T13:01:37.090Z,98910.56
2022-11-21T13:03:27.773Z,98901.69
2022-11-21T13:05:00.176Z,98902.66
2022-11-21T13:06:33.467Z,98901.78
2022-11-21T13:08:25.767Z,98900.97
2022-11-21T13:09:58.608Z,98903.50
2022-11-21T13:11:49.261Z,98903.44
2022-11-21T13:13:26.677Z,98901.47
2022-11-21T13:15:17.176Z,98903.75
2022-11-21T13:17:18.511Z,98901.59
2022-11-21T13:18:50.597Z,98900.41
2022-11-21T13:20:32.356Z,98900.06
2022-11-21T13:22:04.244Z,98895.50
2022-11-21T13:23:38.973Z,98901.09
2022-11-21T13:25:15.671Z,98898.16
2022-11-21T13:26:48.730Z,98892.97
2022-11-21T13:28:20.831Z,98897.19
2022-11-21T13:30:07.962Z,98906.13
2022-11-21T13:31:41.314Z,98901.97
2022-11-21T13:33:34.751Z,98903.69
2022-11-21T13:35:21.977Z,98908.88
2022-11-21T13:36:54.051Z,98912.50
2022-11-21T13:38:26.332Z,98912.50
2022-11-21T13:40:18.457Z,98916.06
2022-11-21T13:42:23.437Z,98913.59
2022-11-21T13:44:15.416Z,98912.69
2022-11-21T13:45:49.822Z,98908.41
2022-11-21T13:47:45.647Z,98906.66
2022-11-21T13:49:19.171Z,98900.69
2022-11-21T13:50:54.031Z,98897.31
2022-11-21T13:52:28.158Z,98893.19
2022-11-21T13:54:00.278Z,98895.84
2022-11-21T13:55:47.403Z,98893.19
2022-11-21T13:57:19.389Z,98888.06
2022-11-21T13:59:10.031Z,98889.75
2022-11-21T14:00:48.060Z,98898.59
2022-11-21T14:02:27.022Z,98892.69
2022-11-21T14:04:05.428Z,98893.16
2022-11-21T14:05:53.662Z,98901.72
2022-11-21T14:07:25.754Z,98906.97
2022-11-21T14:09:16.741Z,98902.75
2022-11-21T14:10:49.331Z,98907.19
2022-11-21T14:12:38.291Z,98902.25
2022-11-21T14:14:13.315Z,98904.19
2022-11-21T14:15:47.538Z,98900.91
2022-11-21T14:17:26.011Z,98902.72
2022-11-21T14:18:58.302Z,98904.50
2022-11-21T14:21:05.859Z,98908.09
2022-11-21T14:22:47.853Z,98905.50
2022-11-21T14:24:20.012Z,98903.16
2022-11-21T14:25:55.844Z,98904.09
2022-11-21T14:27:29.324Z,98902.38
2022-11-21T14:29:39.925Z,98893.03
2022-11-21T14:31:15.878Z,98905.97
2022-11-21T14:32:53.935Z,98913.16
2022-11-21T14:34:30.512Z,98910.63
2022-11-21T14:36:03.059Z,98921.94
2022-11-21T14:37:35.216Z,98917.78
2022-11-21T14:41:20.686Z,98927.34
2022-11-21T14:42:52.899Z,98924.91
2022-11-21T14:44:25.231Z,98929.13
2022-11-21T14:45:57.399Z,98931.84
2022-11-21T14:49:17.694Z,98940.53
2022-11-21T14:50:50.129Z,98950.06
2022-11-21T14:52:28.479Z,98955.38
2022-11-21T14:54:00.682Z,98961.56
2022-11-21T14:55:33.345Z,98967.56
2022-11-21T14:57:11.466Z,98964.94
2022-11-21T14:58:43.384Z,98967.69
2022-11-21T15:02:21.328Z,98974.59
2022-11-21T15:04:01.552Z,98973.00
2022-11-21T15:06:01.524Z,98975.66
2022-11-21T15:07:31.796Z,98982.50
2022-11-21T15:10:59.570Z,98973.00
2022-11-21T15:12:34.295Z,98983.34
2022-11-21T15:14:16.696Z,98982.56
2022-11-21T15:15:50.009Z,98985.22
2022-11-21T15:17:22.655Z,98982.72
2022-11-21T15:18:56.882Z,98996.56
2022-11-21T15:20:29.625Z,98997.56
2022-11-21T15:22:02.249Z,98999.53
2022-11-21T15:23:35.962Z,99005.50
2022-11-21T15:25:10.081Z,99020.19
2022-11-21T15:26:43.292Z,99025.44
2022-11-21T15:28:18.719Z,99018.66
2022-11-21T15:30:01.193Z,99018.81
2022-11-21T15:31:33.173Z,99019.75
2022-11-21T15:33:12.476Z,99009.41
2022-11-21T15:34:44.707Z,99017.41
2022-11-21T15:36:16.855Z,99020.81
2022-11-21T15:37:49.548Z,99019.94
2022-11-21T15:39:22.917Z,99014.81
2022-11-21T15:41:01.159Z,99027.03
2022-11-21T15:42:33.422Z,99024.75
2022-11-21T15:44:05.392Z,99021.31
2022-11-21T15:45:37.320Z,99017.09
2022-11-21T15:47:09.346Z,99015.44
2022-11-21T15:48:41.646Z,99024.13
2022-11-21T15:50:13.621Z,99022.47
2022-11-21T15:53:38.522Z,99022.66
2022-11-21T15:55:14.628Z,99024.38
2022-11-21T15:56:50.159Z,99028.00
2022-11-21T15:58:22.406Z,99025.47
2022-11-21T15:59:54.620Z,99031.66
2022-11-21T16:01:28.074Z,99033.34
2022-11-21T16:03:00.036Z,99037.69
2022-11-21T16:04:31.914Z,99044.72
2022-11-21T16:06:04.025Z,99052.50
2022-11-21T16:07:35.961Z,99050.84
2022-11-21T16:09:07.985Z,99058.66
2022-11-21T16:10:39.931Z,99059.56
2022-11-21T16:12:12.115Z,99049.13
2022-11-21T16:13:44.321Z,99048.34
2022-11-21T16:15:16.204Z,99050.13
2022-11-21T16:16:48.157Z,99047.69
2022-11-21T16:18:20.306Z,99047.56
2022-11-21T16:19:52.473Z,99040.69
2022-11-21T16:23:01.600Z,99054.47
2022-11-21T16:24:33.895Z,99045.84
2022-11-21T16:26:06.645Z,99048.44
2022-11-21T16:27:38.682Z,99049.22
2022-11-21T16:29:10.604Z,99061.25
2022-11-21T16:30:42.847Z,99056.19
2022-11-21T16:32:14.935Z,99063.03
2022-11-21T16:33:47.444Z,99062.22
2022-11-21T16:35:20.857Z,99073.47
2022-11-21T16:36:52.951Z,99070.94
2022-11-21T16:38:25.580Z,99063.34
2022-11-21T16:39:57.686Z,99073.00
2022-11-21T16:41:29.991Z,99075.72
2022-11-21T16:43:07.430Z,99078.34
2022-11-21T16:44:39.819Z,99083.59
2022-11-21T16:46:11.991Z,99087.03
2022-11-21T16:47:48.560Z,99090.44
2022-11-21T16:49:20.994Z,99085.25
2022-11-21T16:50:52.907Z,99080.06
2022-11-21T16:52:25.025Z,99085.25
2022-11-21T16:53:57.104Z,99086.09
2022-11-21T16:55:31.041Z,99091.41
2022-11-21T16:57:05.641Z,99096.69
2022-11-21T16:58:37.959Z,99099.31
2022-11-21T17:00:12.408Z,99108.84
2022-11-21T17:01:47.556Z,99109.75
2022-11-21T17:03:19.575Z,99109.75
2022-11-21T17:04:52.765Z,99105.53
2022-11-21T17:06:27.443Z,99108.00
2022-11-21T17:07:59.736Z,99115.63
2022-11-21T17:09:32.008Z,99111.34
2022-11-21T17:11:23.241Z,99112.25
2022-11-21T17:12:55.279Z,99120.94
2022-11-21T17:14:27.786Z,99121.13
2022-11-21T17:16:04.523Z,99129.84
2022-11-21T17:17:37.046Z,99130.00
2022-11-21T17:19:10.881Z,99134.38
2022-11-21T17:20:43.268Z,99136.19
2022-11-21T17:22:18.967Z,99140.53
2022-11-21T17:23:55.485Z,99139.75
2022-11-21T17:27:01.755Z,99151.88
2022-11-21T17:28:34.170Z,99147.63
2022-11-21T17:30:06.700Z,99140.81
2022-11-21T17:31:39.036Z,99147.75
2022-11-21T17:33:11.288Z,99146.03
2022-11-21T17:34:43.583Z,99146.00
2022-11-21T17:36:15.654Z,99151.97
2022-11-21T17:37:47.641Z,99159.69
2022-11-21T17:39:20.322Z,99158.88
2022-11-21T17:41:04.833Z,99161.50
2022-11-21T17:42:36.741Z,99162.38
2022-11-21T17:44:10.210Z,99165.81
2022-11-21T17:45:42.318Z,99174.34
2022-11-21T17:47:14.541Z,99179.44
2022-11-21T17:48:52.925Z,99180.28
2022-11-21T17:50:26.794Z,99182.81
2022-11-21T17:51:58.813Z,99189.63
2022-11-21T17:53:32.135Z,99188.84
2022-11-21T17:55:04.302Z,99193.25
2022-11-21T17:56:43.906Z,99201.78
2022-11-21T17:58:17.921Z,99203.47
2022-11-21T17:59:54.652Z,99206.91
2022-11-21T18:01:27.073Z,99199.97
2022-11-21T18:02:59.254Z,99199.88
2022-11-21T18:04:31.514Z,99206.75
2022-11-21T18:06:04.831Z,99207.59
2022-11-21T18:07:38.135Z,99211.91
2022-11-21T18:09:10.557Z,99219.59
2022-11-21T18:10:43.982Z,99220.59
2022-11-21T18:12:16.410Z,99211.94
2022-11-21T18:13:48.966Z,99217.09
2022-11-21T18:15:21.164Z,99216.31
2022-11-21T18:16:54.443Z,99216.25
2022-11-21T18:18:26.617Z,99216.16
2022-11-21T18:19:58.593Z,99219.50
2022-11-21T18:21:31.532Z,99219.44
2022-11-21T18:23:03.855Z,99221.13
2022-11-21T18:24:35.990Z,99226.31
2022-11-21T18:26:09.184Z,99227.09
2022-11-21T18:27:41.144Z,99227.97
2022-11-21T18:29:35.254Z,99227.97
2022-11-21T18:31:07.150Z,99224.53
2022-11-21T18:32:39.580Z,99217.66
2022-11-21T18:34:12.817Z,99220.25
2022-11-21T18:35:44.869Z,99216.00
2022-11-21T18:37:16.766Z,99217.63
2022-11-21T18:38:53.679Z,99222.72
2022-11-21T18:40:30.023Z,99225.19
2022-11-21T18:42:02.192Z,99222.59
2022-11-21T18:43:34.466Z,99218.25
2022-11-21T18:45:06.887Z,99222.56
2022-11-21T18:46:39.136Z,99226.81
2022-11-21T18:48:11.403Z,99220.69
2022-11-21T18:49:43.547Z,99220.69
2022-11-21T18:51:18.775Z,99224.94
2022-11-21T18:52:51.140Z,99219.72
2022-11-21T18:54:23.582Z,99218.88
2022-11-21T18:55:57.521Z,99216.34
2022-11-21T18:57:29.650Z,99221.50
2022-11-21T18:59:03.695Z,99216.34
2022-11-21T19:00:35.975Z,99222.38
2022-11-21T19:02:08.294Z,99227.53
2022-11-21T19:03:40.453Z,99228.44
2022-11-21T19:05:17.588Z,99235.25
2022-11-21T19:06:52.485Z,99235.22
2022-11-21T19:08:25.383Z,99227.38
2022-11-21T19:10:14.684Z,99235.97
2022-11-21T19:11:49.576Z,99232.47
2022-11-21T19:13:21.705Z,99229.84